createdAt,value
2023-03-26T00:02:04.871Z,17.02
2023-03-26T00:04:33.705Z,15.60
2023-03-26T00:07:01.797Z,15.50
2023-03-26T00:09:29.891Z,18.38
2023-03-26T00:11:59.058Z,21.15
2023-03-26T00:14:26.975Z,19.42
2023-03-26T00:16:54.718Z,25.77
2023-03-26T00:19:22.803Z,19.75
2023-03-26T00:21:52.652Z,21.45
2023-03-26T00:24:20.359Z,24.17
2023-03-26T00:26:53.327Z,23.98
2023-03-26T00:29:24.660Z,21.33
2023-03-26T00:31:52.411Z,23.83
2023-03-26T00:34:20.769Z,26.58
2023-03-26T00:36:54.270Z,18.55
2023-03-26T00:39:24.031Z,25.63
2023-03-26T00:41:54.548Z,22.63
2023-03-26T00:44:24.225Z,23.83
2023-03-26T00:46:51.986Z,22.90
2023-03-26T00:49:19.842Z,26.27
2023-03-26T00:51:47.568Z,28.35
2023-03-26T00:54:15.645Z,23.23
2023-03-26T00:56:43.526Z,25.42
2023-03-26T00:59:11.678Z,28.02
2023-03-26T01:01:40.870Z,31.98
2023-03-26T01:04:27.954Z,26.15
2023-03-26T01:06:56.621Z,26.25
2023-03-26T01:09:32.863Z,31.38
2023-03-26T01:12:02.062Z,25.40
2023-03-26T01:14:30.243Z,29.13
2023-03-26T01:17:01.441Z,28.00
2023-03-26T01:19:33.973Z,25.50
2023-03-26T01:22:01.876Z,31.92
2023-03-26T01:24:31.111Z,26.23
2023-03-26T01:27:25.695Z,20.50
2023-03-26T01:29:55.714Z,23.80
2023-03-26T01:32:32.069Z,26.33
2023-03-26T01:35:12.406Z,27.20
2023-03-26T01:37:52.772Z,17.05
2023-03-26T01:40:27.975Z,25.50
2023-03-26T01:43:05.355Z,22.65
2023-03-26T01:45:37.154Z,25.63
2023-03-26T01:48:06.192Z,19.15
2023-03-26T01:50:34.037Z,29.90
2023-03-26T01:53:02.182Z,29.73
2023-03-26T01:55:36.503Z,24.52
2023-03-26T01:58:13.867Z,20.95
2023-03-26T02:00:49.846Z,25.45
2023-03-26T02:03:27.080Z,26.13
2023-03-26T02:05:59.526Z,30.45
2023-03-26T02:08:35.445Z,26.58
2023-03-26T02:11:11.464Z,19.80
2023-03-26T02:13:40.073Z,24.70
2023-03-26T02:16:11.567Z,26.73
2023-03-26T02:18:39.704Z,22.20
2023-03-26T02:21:10.965Z,21.70
2023-03-26T02:23:40.266Z,31.63
2023-03-26T02:26:11.216Z,28.02
2023-03-26T02:28:39.820Z,24.05
2023-03-26T02:31:09.674Z,26.65
2023-03-26T02:33:38.153Z,27.83
2023-03-26T02:36:08.473Z,23.90
2023-03-26T02:38:36.534Z,27.33
2023-03-26T02:41:13.523Z,26.45
2023-03-26T02:43:41.233Z,28.10
2023-03-26T02:46:08.972Z,22.60
2023-03-26T02:48:36.709Z,23.88
2023-03-26T02:51:06.643Z,25.77
2023-03-26T02:53:34.456Z,25.10
2023-03-26T02:56:02.380Z,26.88
2023-03-26T02:58:31.432Z,22.30
2023-03-26T03:00:59.170Z,21.10
2023-03-26T03:03:28.216Z,22.85
2023-03-26T03:05:56.525Z,22.27
2023-03-26T03:08:28.089Z,27.52
2023-03-26T03:11:00.957Z,25.83
2023-03-26T03:13:29.320Z,23.08
2023-03-26T03:15:58.424Z,28.05
2023-03-26T03:18:26.205Z,26.42
2023-03-26T03:20:53.969Z,26.13
2023-03-26T03:23:21.704Z,20.55
2023-03-26T03:25:52.376Z,30.20
2023-03-26T03:28:20.505Z,32.47
2023-03-26T03:30:48.864Z,24.58
2023-03-26T03:33:20.284Z,29.05
2023-03-26T03:35:48.980Z,22.77
2023-03-26T03:38:17.013Z,29.85
2023-03-26T03:40:45.093Z,28.92
2023-03-26T03:43:12.780Z,26.90
2023-03-26T03:45:40.673Z,29.88
2023-03-26T03:48:08.499Z,29.77
2023-03-26T03:50:38.189Z,28.30
2023-03-26T03:53:06.622Z,29.15
2023-03-26T03:55:34.364Z,24.65
2023-03-26T03:58:02.112Z,27.88
2023-03-26T04:00:30.660Z,31.95
2023-03-26T04:02:58.764Z,27.65
2023-03-26T04:05:26.597Z,31.88
2023-03-26T04:07:55.707Z,24.92
2023-03-26T04:10:23.466Z,23.88
2023-03-26T04:12:51.184Z,25.23
2023-03-26T04:15:19.002Z,27.27
2023-03-26T04:17:46.781Z,25.58
2023-03-26T04:20:15.692Z,21.85
2023-03-26T04:22:43.705Z,23.02
2023-03-26T04:25:15.483Z,24.80
2023-03-26T04:27:44.105Z,26.08
2023-03-26T04:30:15.791Z,26.42
2023-03-26T04:32:44.687Z,23.30
2023-03-26T04:35:14.517Z,22.48
2023-03-26T04:37:44.442Z,28.80
2023-03-26T04:40:18.372Z,19.52
2023-03-26T04:42:46.530Z,25.80
2023-03-26T04:45:15.349Z,27.70
2023-03-26T04:47:43.029Z,25.08
2023-03-26T04:50:12.382Z,27.30
2023-03-26T04:52:40.963Z,27.33
2023-03-26T04:55:20.688Z,21.88
2023-03-26T04:57:54.755Z,25.92
2023-03-26T05:00:22.732Z,25.10
2023-03-26T05:02:51.085Z,26.63
2023-03-26T05:05:19.026Z,26.55
2023-03-26T05:07:46.882Z,22.70
2023-03-26T05:10:17.534Z,22.95
2023-03-26T05:12:45.228Z,24.73
2023-03-26T05:15:13.770Z,22.65
2023-03-26T05:17:42.641Z,25.25
2023-03-26T05:20:20.790Z,28.60
2023-03-26T05:22:48.733Z,28.40
2023-03-26T05:25:18.474Z,26.17
2023-03-26T05:27:46.749Z,24.15
2023-03-26T05:30:16.662Z,23.15
2023-03-26T05:32:44.678Z,27.90
2023-03-26T05:35:12.753Z,26.25
2023-03-26T05:37:40.409Z,32.50
2023-03-26T05:40:12.293Z,33.05
2023-03-26T05:42:42.311Z,33.88
2023-03-26T05:45:11.955Z,28.70
2023-03-26T05:47:39.702Z,28.40
2023-03-26T05:50:08.718Z,29.98
2023-03-26T05:52:36.715Z,21.30
2023-03-26T05:55:04.758Z,18.73
2023-03-26T05:57:32.894Z,17.35
2023-03-26T06:00:02.482Z,26.00
2023-03-26T06:02:30.476Z,30.45
2023-03-26T06:04:58.185Z,22.83
2023-03-26T06:07:27.000Z,23.95
2023-03-26T06:09:54.858Z,21.10
2023-03-26T06:12:22.670Z,28.33
2023-03-26T06:14:50.397Z,25.33
2023-03-26T06:17:19.497Z,23.38
2023-03-26T06:19:47.872Z,22.70
2023-03-26T06:22:15.636Z,26.23
2023-03-26T06:24:43.379Z,26.58
2023-03-26T06:27:11.085Z,23.65
2023-03-26T06:29:38.791Z,33.47
2023-03-26T06:32:18.963Z,28.02
2023-03-26T06:34:49.150Z,18.70
2023-03-26T06:37:16.970Z,31.77
2023-03-26T06:39:44.761Z,29.67
2023-03-26T06:42:12.455Z,18.90
2023-03-26T06:44:40.289Z,22.95
2023-03-26T06:47:08.023Z,23.67
2023-03-26T06:49:36.487Z,20.65
2023-03-26T06:52:06.024Z,22.77
2023-03-26T06:54:33.779Z,19.98
2023-03-26T06:57:01.583Z,14.55
2023-03-26T06:59:29.231Z,17.48
2023-03-26T07:01:56.957Z,13.48
2023-03-26T07:04:24.762Z,23.75
2023-03-26T07:06:52.582Z,19.98
2023-03-26T07:09:21.668Z,21.20
2023-03-26T07:11:49.374Z,28.27
2023-03-26T07:14:17.062Z,34.17
2023-03-26T07:16:44.879Z,16.33
2023-03-26T07:19:12.619Z,20.45
2023-03-26T07:21:40.923Z,18.02
2023-03-26T07:24:11.790Z,17.23
2023-03-26T07:26:50.125Z,18.60
2023-03-26T07:29:26.217Z,16.23
2023-03-26T07:32:02.077Z,16.27
2023-03-26T07:34:46.490Z,19.67
2023-03-26T07:37:27.111Z,16.60
2023-03-26T07:40:05.860Z,16.63
2023-03-26T07:42:45.992Z,20.75
2023-03-26T07:45:23.584Z,18.58
2023-03-26T07:47:53.612Z,16.10
2023-03-26T07:50:23.333Z,17.63
2023-03-26T07:52:51.669Z,17.33
2023-03-26T07:55:20.636Z,19.95
2023-03-26T07:58:02.060Z,20.13
2023-03-26T08:00:33.982Z,17.80
2023-03-26T08:03:24.025Z,16.40
2023-03-26T08:05:58.257Z,18.20
2023-03-26T08:08:34.319Z,17.25
2023-03-26T08:11:13.820Z,15.95
2023-03-26T08:13:57.644Z,16.98
2023-03-26T08:16:30.520Z,13.55
2023-03-26T08:19:07.836Z,15.55
2023-03-26T08:21:40.260Z,16.75
2023-03-26T08:24:14.712Z,17.75
2023-03-26T08:26:49.438Z,17.35
2023-03-26T08:29:32.707Z,15.20
2023-03-26T08:32:02.614Z,19.58
2023-03-26T08:34:30.351Z,19.23
2023-03-26T08:36:58.098Z,16.85
2023-03-26T08:39:25.828Z,17.73
2023-03-26T08:42:27.691Z,13.57
2023-03-26T08:45:35.507Z,26.30
2023-03-26T08:48:50.814Z,29.38
2023-03-26T08:52:03.236Z,23.38
2023-03-26T08:54:47.978Z,30.67
2023-03-26T08:57:49.331Z,20.80
2023-03-26T09:00:32.912Z,20.65
2023-03-26T09:03:18.352Z,16.38
2023-03-26T09:06:26.222Z,15.27
2023-03-26T09:09:22.161Z,18.52
2023-03-26T09:12:18.237Z,13.93
2023-03-26T09:15:39.740Z,16.15
2023-03-26T09:18:41.441Z,19.75
2023-03-26T09:21:38.479Z,13.05
2023-03-26T09:24:50.021Z,25.52
2023-03-26T09:27:37.216Z,19.25
2023-03-26T09:30:34.074Z,22.08
2023-03-26T09:33:33.792Z,56.20
2023-03-26T09:36:22.727Z,91.10
2023-03-26T09:39:00.349Z,28.02
2023-03-26T09:41:39.393Z,16.85
2023-03-26T09:44:45.815Z,21.52
2023-03-26T09:47:34.836Z,21.33
2023-03-26T09:50:21.577Z,17.00
2023-03-26T09:53:03.979Z,18.08
2023-03-26T09:55:45.268Z,12.10
2023-03-26T09:58:35.640Z,14.23
2023-03-26T10:01:12.541Z,14.32
2023-03-26T10:03:52.632Z,16.67
2023-03-26T10:06:32.631Z,15.45
2023-03-26T10:09:15.052Z,14.18
2023-03-26T10:11:59.318Z,10.45
2023-03-26T10:14:33.580Z,12.30
2023-03-26T10:17:10.590Z,12.57
2023-03-26T10:20:01.641Z,21.73
2023-03-26T10:22:45.472Z,13.50
2023-03-26T10:25:36.118Z,11.45
2023-03-26T10:28:20.300Z,10.85
2023-03-26T10:31:27.852Z,18.65
2023-03-26T10:34:06.493Z,13.40
2023-03-26T10:36:37.033Z,20.15
2023-03-26T10:39:36.709Z,12.63
2023-03-26T10:42:22.271Z,7.35
2023-03-26T10:45:11.241Z,9.73
2023-03-26T10:48:10.746Z,9.32
2023-03-26T10:51:03.829Z,8.15
2023-03-26T10:53:38.552Z,10.02
2023-03-26T10:56:18.216Z,6.35
2023-03-26T10:58:49.408Z,6.75
2023-03-26T11:01:25.963Z,4.72
2023-03-26T11:03:54.882Z,4.40
2023-03-26T11:06:38.701Z,3.85
2023-03-26T11:09:19.772Z,5.75
2023-03-26T11:11:55.109Z,7.10
2023-03-26T11:14:34.913Z,4.15
2023-03-26T11:17:15.060Z,2.65
2023-03-26T11:20:06.310Z,2.78
2023-03-26T11:22:43.982Z,3.30
2023-03-26T11:25:46.463Z,1.98
2023-03-26T11:28:33.578Z,1.90
2023-03-26T11:31:14.537Z,4.78
2023-03-26T11:33:48.242Z,3.58
2023-03-26T11:36:22.149Z,2.92
2023-03-26T11:38:52.242Z,2.42
2023-03-26T11:41:23.499Z,4.47
2023-03-26T11:43:55.197Z,61.45
2023-03-26T11:46:26.101Z,36.73
2023-03-26T11:48:58.100Z,55.70
2023-03-26T11:51:32.788Z,37.15
2023-03-26T11:54:00.732Z,44.35
2023-03-26T11:56:33.668Z,1.92
2023-03-26T11:59:08.610Z,8.20
2023-03-26T12:01:51.473Z,14.30
2023-03-26T12:04:21.140Z,4.22
2023-03-26T12:06:56.567Z,6.40
2023-03-26T12:09:25.799Z,3.53
2023-03-26T12:12:00.487Z,3.03
2023-03-26T12:14:31.508Z,6.35
2023-03-26T12:17:03.849Z,3.80
2023-03-26T12:19:42.510Z,1.20
2023-03-26T12:22:29.469Z,2.10
2023-03-26T12:25:16.131Z,1.67
2023-03-26T12:27:45.402Z,2.50
2023-03-26T12:30:21.538Z,1.10
2023-03-26T12:32:53.279Z,3.15
2023-03-26T12:35:26.786Z,1.15
2023-03-26T12:37:55.757Z,2.33
2023-03-26T12:40:34.257Z,2.78
2023-03-26T12:44:50.756Z,2.08
2023-03-26T12:46:58.953Z,1.80
2023-03-26T12:48:48.526Z,1.45
2023-03-26T12:51:27.717Z,1.48
2023-03-26T12:54:05.152Z,1.52
2023-03-26T12:56:40.455Z,3.55
2023-03-26T12:59:24.618Z,2.05
2023-03-26T13:02:02.219Z,2.75
2023-03-26T13:05:05.096Z,2.28
2023-03-26T13:07:52.800Z,2.72
2023-03-26T13:10:43.119Z,3.40
2023-03-26T13:13:23.406Z,1.60
2023-03-26T13:15:53.726Z,2.38
2023-03-26T13:18:45.372Z,1.75
2023-03-26T13:21:31.211Z,1.60
2023-03-26T13:24:11.354Z,1.88
2023-03-26T13:26:51.497Z,1.60
2023-03-26T13:29:26.139Z,3.40
2023-03-26T13:32:04.589Z,1.42
2023-03-26T13:34:41.181Z,1.60
2023-03-26T13:37:17.303Z,1.77
2023-03-26T13:39:56.918Z,1.70
2023-03-26T13:42:37.886Z,1.98
2023-03-26T13:45:15.065Z,2.42
2023-03-26T13:47:48.472Z,1.98
2023-03-26T13:50:23.095Z,3.08
2023-03-26T13:52:57.058Z,2.25
2023-03-26T13:55:30.053Z,2.10
2023-03-26T13:58:04.973Z,2.30
2023-03-26T14:00:54.464Z,2.20
2023-03-26T14:03:30.196Z,2.47
2023-03-26T14:06:05.026Z,2.88
2023-03-26T14:08:39.014Z,3.25
2023-03-26T14:11:12.264Z,2.58
2023-03-26T14:13:44.710Z,3.28
2023-03-26T14:18:50.421Z,3.03
2023-03-26T14:21:40.821Z,3.55
2023-03-26T14:24:32.138Z,2.70
2023-03-26T14:27:43.992Z,2.25
2023-03-26T14:30:59.298Z,1.90
2023-03-26T14:33:45.378Z,1.83
2023-03-26T14:36:26.035Z,1.50
2023-03-26T14:39:23.639Z,2.75
2023-03-26T14:41:53.259Z,2.70
2023-03-26T14:44:47.816Z,2.55
2023-03-26T14:47:18.885Z,2.88
2023-03-26T14:50:21.472Z,2.90
2023-03-26T14:52:51.611Z,2.28
2023-03-26T14:55:41.964Z,2.83
2023-03-26T14:58:38.151Z,3.22
2023-03-26T15:01:26.601Z,3.50
2023-03-26T15:04:30.327Z,3.67
2023-03-26T15:07:42.682Z,3.47
2023-03-26T15:10:24.234Z,4.00
2023-03-26T15:13:31.110Z,3.33
2023-03-26T15:16:12.722Z,3.88
2023-03-26T15:19:17.687Z,3.92
2023-03-26T15:22:31.723Z,3.35
2023-03-26T15:25:33.252Z,5.15
2023-03-26T15:28:45.025Z,4.97
2023-03-26T15:31:42.675Z,6.85
2023-03-26T15:34:35.523Z,5.03
2023-03-26T15:40:11.338Z,5.57
2023-03-26T15:42:52.408Z,8.25
2023-03-26T15:45:33.025Z,10.27
2023-03-26T15:48:13.823Z,8.80
2023-03-26T15:50:53.809Z,10.27
2023-03-26T15:53:34.842Z,12.88
2023-03-26T15:56:44.233Z,14.32
2023-03-26T15:59:31.140Z,13.75
2023-03-26T16:02:12.066Z,15.02
2023-03-26T16:04:50.415Z,17.13
2023-03-26T16:07:38.956Z,15.85
2023-03-26T16:10:35.076Z,18.88
2023-03-26T16:13:36.258Z,15.65
2023-03-26T16:16:25.817Z,16.30
2023-03-26T16:18:59.477Z,15.60
2023-03-26T16:21:56.058Z,12.48
2023-03-26T16:24:31.943Z,16.27
2023-03-26T16:27:32.122Z,21.75
2023-03-26T16:30:16.497Z,12.68
2023-03-26T16:32:56.083Z,15.73
2023-03-26T16:35:40.079Z,16.85
2023-03-26T16:38:13.403Z,13.35
2023-03-26T16:41:00.243Z,14.57
2023-03-26T16:43:48.558Z,16.02
2023-03-26T16:46:29.525Z,19.30
2023-03-26T16:49:04.966Z,12.40
2023-03-26T16:51:47.665Z,16.02
2023-03-26T16:56:51.869Z,14.82
2023-03-26T17:00:06.738Z,14.15
2023-03-26T17:02:46.265Z,13.25
2023-03-26T17:05:21.036Z,16.63
2023-03-26T17:08:01.153Z,13.27
2023-03-26T17:10:36.231Z,16.63
2023-03-26T17:13:08.704Z,15.45
2023-03-26T17:18:36.327Z,11.90
2023-03-26T17:21:11.997Z,14.00
2023-03-26T17:24:00.921Z,12.20
2023-03-26T17:26:34.922Z,13.38
2023-03-26T17:29:24.377Z,14.57
2023-03-26T17:32:00.418Z,16.58
2023-03-26T17:34:46.822Z,10.90
2023-03-26T17:37:33.466Z,12.15
2023-03-26T17:40:38.207Z,10.75
2023-03-26T17:43:11.120Z,11.77
2023-03-26T17:45:40.405Z,16.20
2023-03-26T17:48:16.948Z,13.98
2023-03-26T17:50:51.829Z,10.63
2023-03-26T17:53:25.722Z,15.48
2023-03-26T17:55:54.677Z,12.77
2023-03-26T17:58:34.670Z,9.07
2023-03-26T18:01:08.956Z,15.10
2023-03-26T18:03:44.353Z,10.73
2023-03-26T18:06:22.897Z,11.50
2023-03-26T18:09:08.091Z,15.13
2023-03-26T18:12:12.968Z,13.38
2023-03-26T18:15:13.416Z,14.32
2023-03-26T18:17:44.501Z,11.40
2023-03-26T18:20:35.473Z,14.88
2023-03-26T18:23:11.017Z,11.25
2023-03-26T18:25:41.081Z,10.23
2023-03-26T18:28:08.782Z,11.90
2023-03-26T18:30:54.539Z,16.40
2023-03-26T18:33:27.054Z,9.32
2023-03-26T18:35:56.888Z,11.23
2023-03-26T18:38:36.943Z,16.63
2023-03-26T18:41:09.167Z,15.57
2023-03-26T18:43:44.378Z,9.40
2023-03-26T18:46:13.393Z,12.65
2023-03-26T18:48:41.653Z,12.73
2023-03-26T18:51:09.719Z,13.88
2023-03-26T18:53:50.362Z,13.40
2023-03-26T18:56:30.914Z,16.38
2023-03-26T18:59:00.483Z,13.82
2023-03-26T19:01:35.309Z,12.50
2023-03-26T19:04:08.665Z,10.27
2023-03-26T19:06:46.154Z,11.70
2023-03-26T19:09:30.867Z,16.83
2023-03-26T19:12:09.774Z,10.98
2023-03-26T19:14:52.419Z,12.55
2023-03-26T19:19:47.855Z,11.30
2023-03-26T19:22:16.659Z,8.70
2023-03-26T19:24:44.939Z,10.65
2023-03-26T19:27:14.119Z,10.95
2023-03-26T19:29:44.736Z,11.02
2023-03-26T19:32:19.119Z,12.32
2023-03-26T19:34:48.110Z,11.05
2023-03-26T19:37:22.425Z,13.70
2023-03-26T19:39:51.796Z,8.63
2023-03-26T19:42:26.247Z,11.10
2023-03-26T19:44:54.838Z,10.38
2023-03-26T19:47:32.117Z,9.50
2023-03-26T19:50:25.842Z,14.00
2023-03-26T19:53:16.560Z,11.30
2023-03-26T19:55:55.690Z,9.68
2023-03-26T19:58:25.920Z,10.40
2023-03-26T20:00:55.708Z,11.05
2023-03-26T20:03:28.437Z,11.75
2023-03-26T20:05:59.245Z,10.43
2023-03-26T20:08:27.867Z,10.68
2023-03-26T20:10:56.601Z,12.63
2023-03-26T20:13:25.742Z,13.27
2023-03-26T20:16:05.008Z,8.73
2023-03-26T20:18:33.179Z,10.63
2023-03-26T20:21:00.884Z,10.32
2023-03-26T20:23:28.948Z,11.85
2023-03-26T20:25:57.332Z,9.40
2023-03-26T20:28:26.629Z,12.10
2023-03-26T20:30:55.145Z,10.73
2023-03-26T20:33:26.780Z,13.43
2023-03-26T20:35:56.759Z,12.35
2023-03-26T20:38:36.712Z,11.43
2023-03-26T20:41:07.172Z,10.48
2023-03-26T20:43:36.503Z,10.68
2023-03-26T20:46:04.310Z,10.93
2023-03-26T20:48:36.240Z,10.40
2023-03-26T20:51:04.773Z,6.95
2023-03-26T20:53:32.705Z,10.45
2023-03-26T20:56:01.958Z,10.50
2023-03-26T20:58:31.119Z,13.90
2023-03-26T21:01:04.938Z,14.13
2023-03-26T21:03:32.630Z,11.20
2023-03-26T21:06:01.278Z,12.25
2023-03-26T21:08:34.987Z,15.77
2023-03-26T21:11:03.787Z,9.85
2023-03-26T21:13:38.325Z,12.02
2023-03-26T21:16:09.125Z,11.10
2023-03-26T21:18:37.845Z,10.52
2023-03-26T21:21:21.047Z,9.82
2023-03-26T21:23:59.206Z,12.65
2023-03-26T21:26:34.178Z,10.93
2023-03-26T21:29:09.722Z,7.93
2023-03-26T21:31:39.440Z,12.73
2023-03-26T21:34:09.579Z,13.80
2023-03-26T21:36:38.170Z,13.48
2023-03-26T21:39:06.489Z,13.27
2023-03-26T21:41:43.599Z,14.00
2023-03-26T21:44:11.741Z,13.55
2023-03-26T21:46:42.644Z,10.52
2023-03-26T21:49:10.918Z,10.43
2023-03-26T21:51:39.402Z,13.65
2023-03-26T21:54:18.651Z,14.57
2023-03-26T21:56:51.105Z,9.63
2023-03-26T22:02:00.098Z,10.45
2023-03-26T22:04:36.803Z,10.43
2023-03-26T22:07:12.225Z,9.70
2023-03-26T22:09:40.398Z,9.93
2023-03-26T22:12:08.282Z,14.43
2023-03-26T22:14:35.979Z,13.88
2023-03-26T22:17:05.488Z,11.60
2023-03-26T22:19:34.381Z,13.50
2023-03-26T22:22:02.280Z,13.85
2023-03-26T22:24:29.997Z,11.40
2023-03-26T22:26:57.781Z,13.73
2023-03-26T22:29:25.431Z,12.25
2023-03-26T22:31:53.045Z,10.85
2023-03-26T22:34:23.052Z,9.50
2023-03-26T22:36:50.781Z,15.10
2023-03-26T22:39:18.428Z,10.98
2023-03-26T22:41:46.099Z,14.60
2023-03-26T22:46:48.956Z,13.88
2023-03-26T22:49:17.034Z,13.70
2023-03-26T22:51:46.671Z,14.50
2023-03-26T22:54:14.483Z,11.88
2023-03-26T22:56:43.522Z,12.00
2023-03-26T22:59:11.258Z,18.52
2023-03-26T23:01:39.037Z,13.65
2023-03-26T23:04:07.040Z,13.15
2023-03-26T23:06:34.756Z,10.27
2023-03-26T23:09:07.005Z,12.80
2023-03-26T23:11:34.817Z,11.10
2023-03-26T23:14:02.603Z,14.95
2023-03-26T23:16:31.659Z,10.60
2023-03-26T23:18:59.402Z,12.43
2023-03-26T23:21:27.092Z,10.18
2023-03-26T23:23:54.747Z,13.93
2023-03-26T23:26:24.413Z,10.07
2023-03-26T23:28:52.270Z,9.98
2023-03-26T23:31:19.964Z,9.50
2023-03-26T23:33:47.728Z,10.73
2023-03-26T23:36:18.118Z,14.23
2023-03-26T23:38:47.722Z,13.82
2023-03-26T23:41:16.696Z,9.82
2023-03-26T23:43:53.586Z,8.95
2023-03-26T23:46:23.739Z,14.63
2023-03-26T23:48:52.067Z,12.10
2023-03-26T23:51:20.982Z,12.43
2023-03-26T23:53:49.602Z,12.15
2023-03-26T23:56:17.903Z,13.38
2023-03-26T23:58:47.696Z,14.30
